sensor_id;sensor_type;location;lat;lon;timestamp;P1;durP1;ratioP1;P2;durP2;ratioP2
6723;SDS011;3399;52.530;13.304;2023-03-01T00:02:18;26.87;;;16.00;;
6723;SDS011;3399;52.530;13.304;2023-03-01T00:04:44;25.87;;;15.30;;
6723;SDS011;3399;52.530;13.304;2023-03-01T00:07:10;21.17;;;15.70;;
6723;SDS011;3399;52.530;13.304;2023-03-01T00:09:36;25.10;;;15.33;;
6723;SDS011;3399;52.530;13.304;2023-03-01T00:12:02;21.00;;;14.33;;
6723;SDS011;3399;52.530;13.304;2023-03-01T00:14:28;22.47;;;15.30;;
6723;SDS011;3399;52.530;13.304;2023-03-01T00:16:53;18.20;;;13.93;;
6723;SDS011;3399;52.530;13.304;2023-03-01T00:19:19;19.20;;;13.70;;
6723;SDS011;3399;52.530;13.304;2023-03-01T00:21:46;23.27;;;14.33;;
6723;SDS011;3399;52.530;13.304;2023-03-01T00:24:12;24.40;;;14.70;;
6723;SDS011;3399;52.530;13.304;2023-03-01T00:26:38;23.23;;;14.93;;
6723;SDS011;3399;52.530;13.304;2023-03-01T00:29:04;19.80;;;14.13;;
6723;SDS011;3399;52.530;13.304;2023-03-01T00:31:31;19.07;;;13.70;;
6723;SDS011;3399;52.530;13.304;2023-03-01T00:33:58;20.80;;;15.37;;
6723;SDS011;3399;52.530;13.304;2023-03-01T00:36:26;21.60;;;14.87;;
6723;SDS011;3399;52.530;13.304;2023-03-01T00:38:53;30.03;;;17.93;;
6723;SDS011;3399;52.530;13.304;2023-03-01T00:41:20;35.60;;;18.03;;
6723;SDS011;3399;52.530;13.304;2023-03-01T00:43:47;23.17;;;16.37;;
6723;SDS011;3399;52.530;13.304;2023-03-01T00:46:15;24.87;;;16.03;;
6723;SDS011;3399;52.530;13.304;2023-03-01T00:48:42;26.97;;;16.57;;
6723;SDS011;3399;52.530;13.304;2023-03-01T00:51:09;24.73;;;16.17;;
6723;SDS011;3399;52.530;13.304;2023-03-01T00:53:45;25.10;;;16.80;;
6723;SDS011;3399;52.530;13.304;2023-03-01T00:56:12;30.40;;;17.73;;
6723;SDS011;3399;52.530;13.304;2023-03-01T00:58:38;27.63;;;19.37;;
6723;SDS011;3399;52.530;13.304;2023-03-01T01:01:08;31.80;;;19.40;;
6723;SDS011;3399;52.530;13.304;2023-03-01T01:03:42;31.27;;;20.70;;
6723;SDS011;3399;52.530;13.304;2023-03-01T01:06:22;28.37;;;18.83;;
6723;SDS011;3399;52.530;13.304;2023-03-01T01:08:51;25.17;;;19.57;;
6723;SDS011;3399;52.530;13.304;2023-03-01T01:11:17;28.27;;;18.63;;
6723;SDS011;3399;52.530;13.304;2023-03-01T01:13:44;26.17;;;17.73;;
6723;SDS011;3399;52.530;13.304;2023-03-01T01:16:10;28.97;;;18.47;;
6723;SDS011;3399;52.530;13.304;2023-03-01T01:18:36;28.13;;;16.60;;
6723;SDS011;3399;52.530;13.304;2023-03-01T01:21:06;24.83;;;16.60;;
6723;SDS011;3399;52.530;13.304;2023-03-01T01:23:33;25.27;;;15.50;;
6723;SDS011;3399;52.530;13.304;2023-03-01T01:26:03;21.80;;;13.87;;
6723;SDS011;3399;52.530;13.304;2023-03-01T01:28:30;23.00;;;15.10;;
6723;SDS011;3399;52.530;13.304;2023-03-01T01:30:55;20.33;;;14.37;;
6723;SDS011;3399;52.530;13.304;2023-03-01T01:33:21;20.30;;;14.17;;
6723;SDS011;3399;52.530;13.304;2023-03-01T01:35:46;19.47;;;13.57;;
6723;SDS011;3399;52.530;13.304;2023-03-01T01:38:12;16.40;;;14.00;;
6723;SDS011;3399;52.530;13.304;2023-03-01T01:40:44;19.63;;;12.67;;
6723;SDS011;3399;52.530;13.304;2023-03-01T01:43:15;18.57;;;12.60;;
6723;SDS011;3399;52.530;13.304;2023-03-01T01:45:47;17.43;;;13.27;;
6723;SDS011;3399;52.530;13.304;2023-03-01T01:48:16;23.67;;;14.20;;
6723;SDS011;3399;52.530;13.304;2023-03-01T01:50:46;22.33;;;13.47;;
6723;SDS011;3399;52.530;13.304;2023-03-01T01:53:18;21.73;;;14.10;;
6723;SDS011;3399;52.530;13.304;2023-03-01T01:55:45;22.13;;;14.43;;
6723;SDS011;3399;52.530;13.304;2023-03-01T01:58:17;21.73;;;13.03;;
6723;SDS011;3399;52.530;13.304;2023-03-01T02:00:45;21.70;;;13.83;;
6723;SDS011;3399;52.530;13.304;2023-03-01T02:03:12;18.10;;;12.70;;
6723;SDS011;3399;52.530;13.304;2023-03-01T02:05:44;20.60;;;13.63;;
6723;SDS011;3399;52.530;13.304;2023-03-01T02:08:28;15.77;;;13.30;;
6723;SDS011;3399;52.530;13.304;2023-03-01T02:10:56;18.33;;;13.03;;
6723;SDS011;3399;52.530;13.304;2023-03-01T02:13:24;24.50;;;13.10;;
6723;SDS011;3399;52.530;13.304;2023-03-01T02:15:50;19.33;;;12.97;;
6723;SDS011;3399;52.530;13.304;2023-03-01T02:18:17;20.47;;;14.10;;
6723;SDS011;3399;52.530;13.304;2023-03-01T02:20:49;18.80;;;13.73;;
6723;SDS011;3399;52.530;13.304;2023-03-01T02:23:33;20.43;;;14.20;;
6723;SDS011;3399;52.530;13.304;2023-03-01T02:28:34;19.57;;;13.13;;
6723;SDS011;3399;52.530;13.304;2023-03-01T02:31:02;19.60;;;12.63;;
6723;SDS011;3399;52.530;13.304;2023-03-01T02:33:48;19.37;;;12.60;;
6723;SDS011;3399;52.530;13.304;2023-03-01T02:36:18;18.17;;;14.00;;
6723;SDS011;3399;52.530;13.304;2023-03-01T02:38:56;17.70;;;12.27;;
6723;SDS011;3399;52.530;13.304;2023-03-01T02:41:24;17.93;;;13.60;;
6723;SDS011;3399;52.530;13.304;2023-03-01T02:43:53;21.17;;;14.40;;
6723;SDS011;3399;52.530;13.304;2023-03-01T02:46:23;17.83;;;13.37;;
6723;SDS011;3399;52.530;13.304;2023-03-01T02:48:54;19.70;;;13.80;;
6723;SDS011;3399;52.530;13.304;2023-03-01T02:51:27;19.00;;;15.13;;
6723;SDS011;3399;52.530;13.304;2023-03-01T02:54:20;19.10;;;13.93;;
6723;SDS011;3399;52.530;13.304;2023-03-01T02:56:53;21.30;;;14.07;;
6723;SDS011;3399;52.530;13.304;2023-03-01T02:59:19;17.50;;;14.37;;
6723;SDS011;3399;52.530;13.304;2023-03-01T03:01:47;16.90;;;13.83;;
6723;SDS011;3399;52.530;13.304;2023-03-01T03:04:14;17.70;;;14.60;;
6723;SDS011;3399;52.530;13.304;2023-03-01T03:06:46;16.97;;;12.83;;
6723;SDS011;3399;52.530;13.304;2023-03-01T03:09:13;18.10;;;13.50;;
6723;SDS011;3399;52.530;13.304;2023-03-01T03:11:40;20.37;;;13.10;;
6723;SDS011;3399;52.530;13.304;2023-03-01T03:14:07;15.53;;;12.33;;
6723;SDS011;3399;52.530;13.304;2023-03-01T03:16:41;20.73;;;13.83;;
6723;SDS011;3399;52.530;13.304;2023-03-01T03:19:07;15.77;;;12.10;;
6723;SDS011;3399;52.530;13.304;2023-03-01T03:21:33;21.97;;;12.87;;
6723;SDS011;3399;52.530;13.304;2023-03-01T03:23:59;21.10;;;13.47;;
6723;SDS011;3399;52.530;13.304;2023-03-01T03:26:24;19.17;;;13.07;;
6723;SDS011;3399;52.530;13.304;2023-03-01T03:28:50;17.10;;;11.93;;
6723;SDS011;3399;52.530;13.304;2023-03-01T03:31:16;24.50;;;13.33;;
6723;SDS011;3399;52.530;13.304;2023-03-01T03:33:41;19.07;;;13.73;;
6723;SDS011;3399;52.530;13.304;2023-03-01T03:36:07;21.33;;;13.60;;
6723;SDS011;3399;52.530;13.304;2023-03-01T03:38:37;19.80;;;13.57;;
6723;SDS011;3399;52.530;13.304;2023-03-01T03:41:05;21.73;;;14.87;;
6723;SDS011;3399;52.530;13.304;2023-03-01T03:43:33;22.43;;;14.87;;
6723;SDS011;3399;52.530;13.304;2023-03-01T03:46:00;21.03;;;13.93;;
6723;SDS011;3399;52.530;13.304;2023-03-01T03:48:26;22.57;;;14.83;;
6723;SDS011;3399;52.530;13.304;2023-03-01T03:50:53;19.23;;;14.50;;
6723;SDS011;3399;52.530;13.304;2023-03-01T03:53:20;20.97;;;14.67;;
6723;SDS011;3399;52.530;13.304;2023-03-01T03:55:46;20.27;;;14.47;;
6723;SDS011;3399;52.530;13.304;2023-03-01T03:58:14;18.50;;;12.70;;
6723;SDS011;3399;52.530;13.304;2023-03-01T04:00:41;15.03;;;11.90;;
6723;SDS011;3399;52.530;13.304;2023-03-01T04:03:09;20.47;;;13.90;;
6723;SDS011;3399;52.530;13.304;2023-03-01T04:05:36;17.67;;;12.53;;
6723;SDS011;3399;52.530;13.304;2023-03-01T04:08:03;19.00;;;13.00;;
6723;SDS011;3399;52.530;13.304;2023-03-01T04:10:33;18.70;;;13.67;;
6723;SDS011;3399;52.530;13.304;2023-03-01T04:13:03;26.87;;;15.13;;
6723;SDS011;3399;52.530;13.304;2023-03-01T04:15:30;27.37;;;15.07;;
6723;SDS011;3399;52.530;13.304;2023-03-01T04:17:57;20.13;;;14.87;;
6723;SDS011;3399;52.530;13.304;2023-03-01T04:20:24;20.20;;;14.60;;
6723;SDS011;3399;52.530;13.304;2023-03-01T04:23:00;25.90;;;16.60;;
6723;SDS011;3399;52.530;13.304;2023-03-01T04:25:35;26.20;;;17.73;;
6723;SDS011;3399;52.530;13.304;2023-03-01T04:28:10;26.90;;;18.97;;
6723;SDS011;3399;52.530;13.304;2023-03-01T04:30:36;33.37;;;19.87;;
6723;SDS011;3399;52.530;13.304;2023-03-01T04:33:03;30.70;;;16.97;;
6723;SDS011;3399;52.530;13.304;2023-03-01T04:35:30;26.57;;;17.70;;
6723;SDS011;3399;52.530;13.304;2023-03-01T04:37:56;26.57;;;18.53;;
6723;SDS011;3399;52.530;13.304;2023-03-01T04:40:22;25.10;;;15.73;;
6723;SDS011;3399;52.530;13.304;2023-03-01T04:42:48;21.23;;;15.03;;
6723;SDS011;3399;52.530;13.304;2023-03-01T04:45:14;24.50;;;17.40;;
6723;SDS011;3399;52.530;13.304;2023-03-01T04:47:40;25.93;;;15.83;;
6723;SDS011;3399;52.530;13.304;2023-03-01T04:50:07;23.90;;;16.30;;
6723;SDS011;3399;52.530;13.304;2023-03-01T04:52:34;23.97;;;14.70;;
6723;SDS011;3399;52.530;13.304;2023-03-01T04:55:00;24.47;;;16.03;;
6723;SDS011;3399;52.530;13.304;2023-03-01T04:57:26;20.83;;;14.80;;
6723;SDS011;3399;52.530;13.304;2023-03-01T04:59:51;26.33;;;15.97;;
6723;SDS011;3399;52.530;13.304;2023-03-01T05:02:17;25.87;;;17.17;;
6723;SDS011;3399;52.530;13.304;2023-03-01T05:04:42;24.47;;;16.03;;
6723;SDS011;3399;52.530;13.304;2023-03-01T05:07:08;24.40;;;16.93;;
6723;SDS011;3399;52.530;13.304;2023-03-01T05:09:33;31.43;;;18.87;;
6723;SDS011;3399;52.530;13.304;2023-03-01T05:11:59;28.57;;;17.53;;
6723;SDS011;3399;52.530;13.304;2023-03-01T05:14:24;32.33;;;17.43;;
6723;SDS011;3399;52.530;13.304;2023-03-01T05:16:50;35.47;;;22.13;;
6723;SDS011;3399;52.530;13.304;2023-03-01T05:19:15;38.07;;;19.93;;
6723;SDS011;3399;52.530;13.304;2023-03-01T05:21:41;35.20;;;19.67;;
6723;SDS011;3399;52.530;13.304;2023-03-01T05:24:26;39.47;;;21.40;;
6723;SDS011;3399;52.530;13.304;2023-03-01T05:26:53;38.03;;;19.07;;
6723;SDS011;3399;52.530;13.304;2023-03-01T05:29:19;33.50;;;19.43;;
6723;SDS011;3399;52.530;13.304;2023-03-01T05:31:50;27.03;;;16.50;;
6723;SDS011;3399;52.530;13.304;2023-03-01T05:34:24;29.87;;;17.77;;
6723;SDS011;3399;52.530;13.304;2023-03-01T05:37:00;28.20;;;17.10;;
6723;SDS011;3399;52.530;13.304;2023-03-01T05:39:26;29.90;;;18.63;;
6723;SDS011;3399;52.530;13.304;2023-03-01T05:41:53;29.40;;;16.80;;
6723;SDS011;3399;52.530;13.304;2023-03-01T05:44:20;23.37;;;14.40;;
6723;SDS011;3399;52.530;13.304;2023-03-01T05:46:46;23.73;;;14.20;;
6723;SDS011;3399;52.530;13.304;2023-03-01T05:49:12;22.13;;;14.07;;
6723;SDS011;3399;52.530;13.304;2023-03-01T05:51:39;25.73;;;14.70;;
6723;SDS011;3399;52.530;13.304;2023-03-01T05:54:05;27.17;;;15.20;;
6723;SDS011;3399;52.530;13.304;2023-03-01T05:56:33;22.77;;;14.60;;
6723;SDS011;3399;52.530;13.304;2023-03-01T05:59:00;19.53;;;15.37;;
6723;SDS011;3399;52.530;13.304;2023-03-01T06:01:26;27.37;;;15.17;;
6723;SDS011;3399;52.530;13.304;2023-03-01T06:03:52;20.27;;;13.47;;
6723;SDS011;3399;52.530;13.304;2023-03-01T06:06:17;25.10;;;14.37;;
6723;SDS011;3399;52.530;13.304;2023-03-01T06:08:43;25.90;;;14.87;;
6723;SDS011;3399;52.530;13.304;2023-03-01T06:11:08;26.93;;;14.17;;
6723;SDS011;3399;52.530;13.304;2023-03-01T06:13:34;20.57;;;15.17;;
6723;SDS011;3399;52.530;13.304;2023-03-01T06:15:59;25.93;;;17.10;;
6723;SDS011;3399;52.530;13.304;2023-03-01T06:18:25;19.97;;;13.70;;
6723;SDS011;3399;52.530;13.304;2023-03-01T06:20:54;26.57;;;14.40;;
6723;SDS011;3399;52.530;13.304;2023-03-01T06:23:19;20.07;;;14.73;;
6723;SDS011;3399;52.530;13.304;2023-03-01T06:25:45;18.50;;;13.83;;
6723;SDS011;3399;52.530;13.304;2023-03-01T06:28:10;22.37;;;16.33;;
6723;SDS011;3399;52.530;13.304;2023-03-01T06:30:36;29.87;;;17.07;;
6723;SDS011;3399;52.530;13.304;2023-03-01T06:33:01;28.53;;;17.93;;
6723;SDS011;3399;52.530;13.304;2023-03-01T06:35:28;24.77;;;15.73;;
6723;SDS011;3399;52.530;13.304;2023-03-01T06:37:55;30.07;;;17.50;;
6723;SDS011;3399;52.530;13.304;2023-03-01T06:40:21;25.70;;;16.73;;
6723;SDS011;3399;52.530;13.304;2023-03-01T06:42:48;21.90;;;16.03;;
6723;SDS011;3399;52.530;13.304;2023-03-01T06:45:14;37.97;;;25.43;;
6723;SDS011;3399;52.530;13.304;2023-03-01T06:47:40;31.60;;;19.00;;
6723;SDS011;3399;52.530;13.304;2023-03-01T06:50:06;28.70;;;18.33;;
6723;SDS011;3399;52.530;13.304;2023-03-01T06:52:32;23.80;;;15.67;;
6723;SDS011;3399;52.530;13.304;2023-03-01T06:54:57;25.03;;;16.90;;
6723;SDS011;3399;52.530;13.304;2023-03-01T06:57:23;32.13;;;18.30;;
6723;SDS011;3399;52.530;13.304;2023-03-01T06:59:48;24.23;;;17.50;;
6723;SDS011;3399;52.530;13.304;2023-03-01T07:02:14;22.43;;;15.93;;
6723;SDS011;3399;52.530;13.304;2023-03-01T07:04:40;26.83;;;17.80;;
6723;SDS011;3399;52.530;13.304;2023-03-01T07:07:06;31.97;;;19.53;;
6723;SDS011;3399;52.530;13.304;2023-03-01T07:09:31;33.30;;;20.17;;
6723;SDS011;3399;52.530;13.304;2023-03-01T07:11:57;30.23;;;19.37;;
6723;SDS011;3399;52.530;13.304;2023-03-01T07:14:23;32.77;;;19.73;;
6723;SDS011;3399;52.530;13.304;2023-03-01T07:16:50;36.57;;;18.73;;
6723;SDS011;3399;52.530;13.304;2023-03-01T07:19:16;26.60;;;19.57;;
6723;SDS011;3399;52.530;13.304;2023-03-01T07:21:41;23.57;;;17.87;;
6723;SDS011;3399;52.530;13.304;2023-03-01T07:24:07;29.47;;;19.10;;
6723;SDS011;3399;52.530;13.304;2023-03-01T07:26:33;31.07;;;17.50;;
6723;SDS011;3399;52.530;13.304;2023-03-01T07:28:59;21.47;;;15.87;;
6723;SDS011;3399;52.530;13.304;2023-03-01T07:31:25;24.33;;;17.77;;
6723;SDS011;3399;52.530;13.304;2023-03-01T07:33:53;26.70;;;16.03;;
6723;SDS011;3399;52.530;13.304;2023-03-01T07:36:19;28.70;;;17.50;;
6723;SDS011;3399;52.530;13.304;2023-03-01T07:38:44;26.50;;;16.73;;
6723;SDS011;3399;52.530;13.304;2023-03-01T07:41:10;30.27;;;18.97;;
6723;SDS011;3399;52.530;13.304;2023-03-01T07:43:35;25.30;;;16.77;;
6723;SDS011;3399;52.530;13.304;2023-03-01T07:46:01;24.93;;;16.27;;
6723;SDS011;3399;52.530;13.304;2023-03-01T07:48:28;25.03;;;14.20;;
6723;SDS011;3399;52.530;13.304;2023-03-01T07:50:54;23.63;;;14.73;;
6723;SDS011;3399;52.530;13.304;2023-03-01T07:53:22;22.33;;;15.03;;
6723;SDS011;3399;52.530;13.304;2023-03-01T07:55:48;28.37;;;15.80;;
6723;SDS011;3399;52.530;13.304;2023-03-01T07:58:13;21.30;;;15.03;;
6723;SDS011;3399;52.530;13.304;2023-03-01T08:00:39;23.10;;;15.53;;
6723;SDS011;3399;52.530;13.304;2023-03-01T08:03:04;22.03;;;16.27;;
6723;SDS011;3399;52.530;13.304;2023-03-01T08:05:30;19.30;;;13.53;;
6723;SDS011;3399;52.530;13.304;2023-03-01T08:07:55;15.90;;;12.97;;
6723;SDS011;3399;52.530;13.304;2023-03-01T08:10:20;24.50;;;13.30;;
6723;SDS011;3399;52.530;13.304;2023-03-01T08:12:46;18.97;;;12.00;;
6723;SDS011;3399;52.530;13.304;2023-03-01T08:15:11;14.30;;;11.47;;
6723;SDS011;3399;52.530;13.304;2023-03-01T08:17:37;13.83;;;11.47;;
6723;SDS011;3399;52.530;13.304;2023-03-01T08:20:05;17.10;;;11.63;;
6723;SDS011;3399;52.530;13.304;2023-03-01T08:22:31;14.37;;;11.83;;
6723;SDS011;3399;52.530;13.304;2023-03-01T08:24:57;15.83;;;11.67;;
6723;SDS011;3399;52.530;13.304;2023-03-01T08:27:23;14.03;;;9.67;;
6723;SDS011;3399;52.530;13.304;2023-03-01T08:29:48;14.87;;;10.03;;
6723;SDS011;3399;52.530;13.304;2023-03-01T08:32:14;13.27;;;10.90;;
6723;SDS011;3399;52.530;13.304;2023-03-01T08:34:39;9.80;;;8.63;;
6723;SDS011;3399;52.530;13.304;2023-03-01T08:37:05;16.57;;;10.63;;
6723;SDS011;3399;52.530;13.304;2023-03-01T08:39:30;11.03;;;8.87;;
6723;SDS011;3399;52.530;13.304;2023-03-01T08:41:56;16.40;;;9.73;;
6723;SDS011;3399;52.530;13.304;2023-03-01T08:44:21;12.83;;;9.03;;
6723;SDS011;3399;52.530;13.304;2023-03-01T08:46:47;18.53;;;9.60;;
6723;SDS011;3399;52.530;13.304;2023-03-01T08:49:15;14.67;;;8.30;;
6723;SDS011;3399;52.530;13.304;2023-03-01T08:51:42;10.00;;;7.93;;
6723;SDS011;3399;52.530;13.304;2023-03-01T08:54:13;9.97;;;7.60;;
6723;SDS011;3399;52.530;13.304;2023-03-01T08:56:44;14.20;;;7.33;;
6723;SDS011;3399;52.530;13.304;2023-03-01T08:59:10;12.33;;;6.57;;
6723;SDS011;3399;52.530;13.304;2023-03-01T09:01:36;6.53;;;4.77;;
6723;SDS011;3399;52.530;13.304;2023-03-01T09:04:02;6.53;;;4.87;;
6723;SDS011;3399;52.530;13.304;2023-03-01T09:06:30;8.17;;;4.97;;
6723;SDS011;3399;52.530;13.304;2023-03-01T09:08:58;8.10;;;4.17;;
6723;SDS011;3399;52.530;13.304;2023-03-01T09:11:24;6.57;;;5.23;;
6723;SDS011;3399;52.530;13.304;2023-03-01T09:13:50;7.07;;;5.10;;
6723;SDS011;3399;52.530;13.304;2023-03-01T09:16:17;7.63;;;4.80;;
6723;SDS011;3399;52.530;13.304;2023-03-01T09:18:44;6.30;;;5.10;;
6723;SDS011;3399;52.530;13.304;2023-03-01T09:21:14;10.10;;;5.30;;
6723;SDS011;3399;52.530;13.304;2023-03-01T09:23:42;5.90;;;4.73;;
6723;SDS011;3399;52.530;13.304;2023-03-01T09:26:09;9.40;;;5.30;;
6723;SDS011;3399;52.530;13.304;2023-03-01T09:28:36;12.40;;;4.90;;
6723;SDS011;3399;52.530;13.304;2023-03-01T09:31:02;7.37;;;5.53;;
6723;SDS011;3399;52.530;13.304;2023-03-01T09:33:28;7.63;;;4.67;;
6723;SDS011;3399;52.530;13.304;2023-03-01T09:35:58;6.60;;;4.93;;
6723;SDS011;3399;52.530;13.304;2023-03-01T09:38:25;6.70;;;5.33;;
6723;SDS011;3399;52.530;13.304;2023-03-01T09:40:51;7.90;;;5.63;;
6723;SDS011;3399;52.530;13.304;2023-03-01T09:45:46;9.47;;;5.83;;
6723;SDS011;3399;52.530;13.304;2023-03-01T09:48:16;10.17;;;4.87;;
6723;SDS011;3399;52.530;13.304;2023-03-01T09:50:43;7.23;;;5.07;;
6723;SDS011;3399;52.530;13.304;2023-03-01T09:53:13;7.73;;;5.03;;
6723;SDS011;3399;52.530;13.304;2023-03-01T09:56:02;5.17;;;4.67;;
6723;SDS011;3399;52.530;13.304;2023-03-01T10:01:28;7.20;;;4.53;;
6723;SDS011;3399;52.530;13.304;2023-03-01T10:09:36;4.83;;;3.43;;
6723;SDS011;3399;52.530;13.304;2023-03-01T10:12:04;4.67;;;4.27;;
6723;SDS011;3399;52.530;13.304;2023-03-01T10:20:10;6.00;;;3.30;;
6723;SDS011;3399;52.530;13.304;2023-03-01T10:22:43;4.57;;;3.83;;
6723;SDS011;3399;52.530;13.304;2023-03-01T10:25:13;5.13;;;4.33;;
6723;SDS011;3399;52.530;13.304;2023-03-01T10:32:54;5.80;;;4.37;;
6723;SDS011;3399;52.530;13.304;2023-03-01T10:37:58;8.27;;;4.50;;
6723;SDS011;3399;52.530;13.304;2023-03-01T10:40:32;8.87;;;4.60;;
6723;SDS011;3399;52.530;13.304;2023-03-01T10:43:00;5.37;;;4.87;;
6723;SDS011;3399;52.530;13.304;2023-03-01T10:48:24;5.20;;;4.33;;
6723;SDS011;3399;52.530;13.304;2023-03-01T10:53:41;8.10;;;4.57;;
6723;SDS011;3399;52.530;13.304;2023-03-01T10:56:09;6.60;;;4.40;;
6723;SDS011;3399;52.530;13.304;2023-03-01T10:58:38;5.20;;;4.43;;
6723;SDS011;3399;52.530;13.304;2023-03-01T11:01:23;5.17;;;4.63;;
6723;SDS011;3399;52.530;13.304;2023-03-01T11:04:07;6.57;;;4.03;;
6723;SDS011;3399;52.530;13.304;2023-03-01T11:06:39;4.80;;;3.80;;
6723;SDS011;3399;52.530;13.304;2023-03-01T11:09:15;5.30;;;4.50;;
6723;SDS011;3399;52.530;13.304;2023-03-01T11:11:45;9.20;;;3.33;;
6723;SDS011;3399;52.530;13.304;2023-03-01T11:14:17;6.37;;;3.23;;
6723;SDS011;3399;52.530;13.304;2023-03-01T11:17:00;6.17;;;3.50;;
6723;SDS011;3399;52.530;13.304;2023-03-01T11:19:30;3.87;;;3.50;;
6723;SDS011;3399;52.530;13.304;2023-03-01T11:21:59;8.33;;;4.50;;
6723;SDS011;3399;52.530;13.304;2023-03-01T11:24:37;4.87;;;4.37;;
6723;SDS011;3399;52.530;13.304;2023-03-01T11:29:54;6.17;;;3.73;;
6723;SDS011;3399;52.530;13.304;2023-03-01T11:32:24;5.57;;;3.67;;
6723;SDS011;3399;52.530;13.304;2023-03-01T11:35:05;6.10;;;4.20;;
6723;SDS011;3399;52.530;13.304;2023-03-01T11:37:40;7.10;;;3.50;;
6723;SDS011;3399;52.530;13.304;2023-03-01T11:40:13;5.97;;;4.20;;
6723;SDS011;3399;52.530;13.304;2023-03-01T11:42:53;5.80;;;3.80;;
6723;SDS011;3399;52.530;13.304;2023-03-01T11:50:55;3.70;;;3.10;;
6723;SDS011;3399;52.530;13.304;2023-03-01T11:53:32;5.00;;;3.33;;
6723;SDS011;3399;52.530;13.304;2023-03-01T11:56:03;5.20;;;3.20;;
6723;SDS011;3399;52.530;13.304;2023-03-01T11:58:50;4.63;;;3.27;;
6723;SDS011;3399;52.530;13.304;2023-03-01T12:01:21;4.70;;;3.57;;
6723;SDS011;3399;52.530;13.304;2023-03-01T12:06:55;4.70;;;3.73;;
6723;SDS011;3399;52.530;13.304;2023-03-01T12:12:24;4.00;;;3.20;;
6723;SDS011;3399;52.530;13.304;2023-03-01T12:15:24;6.17;;;4.00;;
6723;SDS011;3399;52.530;13.304;2023-03-01T12:21:19;4.30;;;3.90;;
6723;SDS011;3399;52.530;13.304;2023-03-01T12:26:42;5.23;;;4.33;;
6723;SDS011;3399;52.530;13.304;2023-03-01T12:29:55;3.77;;;3.47;;
6723;SDS011;3399;52.530;13.304;2023-03-01T12:32:38;3.80;;;3.33;;
6723;SDS011;3399;52.530;13.304;2023-03-01T12:51:58;4.93;;;3.47;;
6723;SDS011;3399;52.530;13.304;2023-03-01T12:54:37;4.60;;;3.40;;
6723;SDS011;3399;52.530;13.304;2023-03-01T13:00:17;4.07;;;2.37;;
6723;SDS011;3399;52.530;13.304;2023-03-01T13:05:50;5.23;;;2.43;;
6723;SDS011;3399;52.530;13.304;2023-03-01T13:11:10;2.60;;;2.40;;
6723;SDS011;3399;52.530;13.304;2023-03-01T13:13:47;2.80;;;2.60;;
6723;SDS011;3399;52.530;13.304;2023-03-01T13:16:20;2.67;;;2.47;;
6723;SDS011;3399;52.530;13.304;2023-03-01T13:19:05;3.30;;;3.00;;
6723;SDS011;3399;52.530;13.304;2023-03-01T13:21:33;2.83;;;2.47;;
6723;SDS011;3399;52.530;13.304;2023-03-01T13:23:59;5.50;;;2.90;;
6723;SDS011;3399;52.530;13.304;2023-03-01T13:26:24;2.80;;;2.60;;
6723;SDS011;3399;52.530;13.304;2023-03-01T13:28:51;3.93;;;2.53;;
6723;SDS011;3399;52.530;13.304;2023-03-01T13:33:50;2.93;;;2.40;;
6723;SDS011;3399;52.530;13.304;2023-03-01T13:46:58;5.43;;;2.63;;
6723;SDS011;3399;52.530;13.304;2023-03-01T13:49:33;3.13;;;1.57;;
6723;SDS011;3399;52.530;13.304;2023-03-01T13:52:27;2.10;;;1.90;;
6723;SDS011;3399;52.530;13.304;2023-03-01T13:54:55;3.50;;;1.60;;
6723;SDS011;3399;52.530;13.304;2023-03-01T13:57:22;2.33;;;2.13;;
6723;SDS011;3399;52.530;13.304;2023-03-01T13:59:54;3.10;;;1.90;;
6723;SDS011;3399;52.530;13.304;2023-03-01T14:02:20;2.90;;;2.40;;
6723;SDS011;3399;52.530;13.304;2023-03-01T14:04:46;3.37;;;1.80;;
6723;SDS011;3399;52.530;13.304;2023-03-01T14:07:22;3.13;;;2.40;;
6723;SDS011;3399;52.530;13.304;2023-03-01T14:09:54;2.00;;;1.80;;
6723;SDS011;3399;52.530;13.304;2023-03-01T14:14:59;4.03;;;2.57;;
6723;SDS011;3399;52.530;13.304;2023-03-01T14:17:32;2.27;;;2.07;;
6723;SDS011;3399;52.530;13.304;2023-03-01T14:20:21;2.40;;;2.20;;
6723;SDS011;3399;52.530;13.304;2023-03-01T14:22:48;3.47;;;2.53;;
6723;SDS011;3399;52.530;13.304;2023-03-01T14:27:58;3.43;;;2.50;;
6723;SDS011;3399;52.530;13.304;2023-03-01T14:30:27;2.30;;;2.10;;
6723;SDS011;3399;52.530;13.304;2023-03-01T14:33:04;3.10;;;2.10;;
6723;SDS011;3399;52.530;13.304;2023-03-01T14:35:41;5.57;;;2.40;;
6723;SDS011;3399;52.530;13.304;2023-03-01T14:38:19;6.07;;;2.13;;
6723;SDS011;3399;52.530;13.304;2023-03-01T14:40:54;3.60;;;2.27;;
6723;SDS011;3399;52.530;13.304;2023-03-01T14:43:24;2.03;;;1.83;;
6723;SDS011;3399;52.530;13.304;2023-03-01T14:45:51;2.53;;;1.80;;
6723;SDS011;3399;52.530;13.304;2023-03-01T14:48:16;3.03;;;2.03;;
6723;SDS011;3399;52.530;13.304;2023-03-01T14:50:43;2.07;;;1.80;;
6723;SDS011;3399;52.530;13.304;2023-03-01T14:53:20;3.60;;;2.00;;
6723;SDS011;3399;52.530;13.304;2023-03-01T14:55:49;1.70;;;1.60;;
6723;SDS011;3399;52.530;13.304;2023-03-01T14:58:24;3.00;;;2.27;;
6723;SDS011;3399;52.530;13.304;2023-03-01T15:00:52;1.93;;;1.70;;
6723;SDS011;3399;52.530;13.304;2023-03-01T15:03:42;3.40;;;1.90;;
6723;SDS011;3399;52.530;13.304;2023-03-01T15:06:14;3.00;;;1.53;;
6723;SDS011;3399;52.530;13.304;2023-03-01T15:08:46;2.90;;;1.50;;
6723;SDS011;3399;52.530;13.304;2023-03-01T15:11:22;3.20;;;2.17;;
6723;SDS011;3399;52.530;13.304;2023-03-01T15:13:49;2.07;;;1.67;;
6723;SDS011;3399;52.530;13.304;2023-03-01T15:16:17;2.00;;;1.80;;
6723;SDS011;3399;52.530;13.304;2023-03-01T15:18:50;2.20;;;1.60;;
6723;SDS011;3399;52.530;13.304;2023-03-01T15:21:33;4.03;;;2.03;;
6723;SDS011;3399;52.530;13.304;2023-03-01T15:24:08;3.00;;;1.50;;
6723;SDS011;3399;52.530;13.304;2023-03-01T15:26:59;4.00;;;1.63;;
6723;SDS011;3399;52.530;13.304;2023-03-01T15:29:31;2.63;;;1.10;;
6723;SDS011;3399;52.530;13.304;2023-03-01T15:31:59;2.50;;;1.63;;
6723;SDS011;3399;52.530;13.304;2023-03-01T15:34:30;2.40;;;2.20;;
6723;SDS011;3399;52.530;13.304;2023-03-01T15:37:00;2.10;;;1.50;;
6723;SDS011;3399;52.530;13.304;2023-03-01T15:39:40;2.10;;;1.67;;
6723;SDS011;3399;52.530;13.304;2023-03-01T15:42:52;2.07;;;1.73;;
6723;SDS011;3399;52.530;13.304;2023-03-01T15:45:19;2.10;;;1.90;;
6723;SDS011;3399;52.530;13.304;2023-03-01T15:47:48;1.60;;;1.50;;
6723;SDS011;3399;52.530;13.304;2023-03-01T15:50:19;2.80;;;2.07;;
6723;SDS011;3399;52.530;13.304;2023-03-01T15:52:47;2.67;;;2.33;;
6723;SDS011;3399;52.530;13.304;2023-03-01T15:55:15;2.47;;;2.10;;
6723;SDS011;3399;52.530;13.304;2023-03-01T15:57:46;2.47;;;1.80;;
6723;SDS011;3399;52.530;13.304;2023-03-01T16:00:12;2.07;;;1.70;;
6723;SDS011;3399;52.530;13.304;2023-03-01T16:02:39;4.63;;;2.20;;
6723;SDS011;3399;52.530;13.304;2023-03-01T16:05:05;4.87;;;2.10;;
6723;SDS011;3399;52.530;13.304;2023-03-01T16:07:39;4.30;;;2.07;;
6723;SDS011;3399;52.530;13.304;2023-03-01T16:10:05;2.50;;;1.97;;
6723;SDS011;3399;52.530;13.304;2023-03-01T16:12:31;2.80;;;2.00;;
6723;SDS011;3399;52.530;13.304;2023-03-01T16:14:56;2.33;;;1.70;;
6723;SDS011;3399;52.530;13.304;2023-03-01T16:17:22;3.87;;;2.27;;
6723;SDS011;3399;52.530;13.304;2023-03-01T16:19:48;4.70;;;2.50;;
6723;SDS011;3399;52.530;13.304;2023-03-01T16:22:13;2.37;;;1.90;;
6723;SDS011;3399;52.530;13.304;2023-03-01T16:24:39;2.63;;;2.10;;
6723;SDS011;3399;52.530;13.304;2023-03-01T16:27:06;4.40;;;2.40;;
6723;SDS011;3399;52.530;13.304;2023-03-01T16:29:31;2.40;;;2.20;;
6723;SDS011;3399;52.530;13.304;2023-03-01T16:31:59;5.27;;;2.90;;
6723;SDS011;3399;52.530;13.304;2023-03-01T16:34:26;3.33;;;2.70;;
6723;SDS011;3399;52.530;13.304;2023-03-01T16:36:51;3.83;;;2.00;;